Sao Jose do Norte, Brazil
Current Conditions -  °F | °C
As of 10:00 AM on Tuesday 21 Oct 2014 (Local Time) from SBPK Reporting Station
Scattered Clouds Scattered Clouds  
Wind Chill: 66°   Ceiling: Unl
Heat Index: 66°   Visibility: 6mi
Dew Point: 57°   Wind: 8mph
Humidity: 73%   Direction: 60°ENE
Pressure: 30.21"   Gusts: NA
Location:  32.01°S, 52.04°W
Report Text: SBPK 211200Z 06007KT 9999 SCT025 19/14 Q1023
Loading
Personal Weather Stations






























Interactive Weather Map
Tropical Storm Tracking
New forecast layout! Learn more

10-Day Weather Forecast

Advertisements
Track Severe Weather on mobile